Time;durP1;ratioP1;P1;durP2;ratioP2;P2;SDS_P1;SDS_P2;PMS_P1;PMS_P2;Temp;Humidity;BMP_temperature;BMP_pressure;BME280_temperature;BME280_humidity;BME280_pressure;Samples;Min_cycle;Max_cycle;Signal;HPM_P1;HPM_P2
2022/01/14 00:02:55;;;;;;;24.23;18.50;;;1.90;78.40;;;;;;6238828;28;20471;-65
2022/01/14 00:05:58;;;;;;;25.80;18.40;;;1.90;78.40;;;;;;6235960;28;21036;-65
2022/01/14 00:09:06;;;;;;;28.37;17.77;;;1.90;78.60;;;;;;6239167;28;20471;-65
2022/01/14 00:12:16;;;;;;;27.57;18.10;;;1.90;78.60;;;;;;6229984;28;20467;-65
2022/01/14 00:15:28;;;;;;;20.33;16.10;;;1.90;78.70;;;;;;6239496;28;20542;-64
2022/01/14 00:18:31;;;;;;;16.90;13.80;;;1.90;78.60;;;;;;6233050;28;20464;-65
2022/01/14 00:21:37;;;;;;;21.53;15.47;;;1.90;78.60;;;;;;6227149;28;20781;-64
2022/01/14 00:31:43;;;;;;;22.37;14.20;;;1.80;79.40;;;;;;6226076;28;20474;-63
2022/01/14 00:34:47;;;;;;;20.30;16.13;;;1.80;79.30;;;;;;6226663;28;20795;-63
2022/01/14 00:37:50;;;;;;;21.47;15.63;;;1.80;79.50;;;;;;6226256;28;20482;-64
2022/01/14 00:40:53;;;;;;;19.40;14.43;;;1.80;79.60;;;;;;6225650;28;20795;-64
2022/01/14 00:44:01;;;;;;;25.80;18.60;;;1.80;79.40;;;;;;6226623;28;20471;-64
2022/01/14 00:47:05;;;;;;;24.47;17.43;;;1.80;79.60;;;;;;6235132;28;20464;-65
2022/01/14 00:50:11;;;;;;;22.70;18.17;;;1.70;80.50;;;;;;6256054;28;20954;-64
2022/01/14 00:53:14;;;;;;;18.83;16.57;;;1.70;80.40;;;;;;6252608;28;20427;-64
2022/01/14 00:56:26;;;;;;;20.80;16.67;;;1.60;81.00;;;;;;6251533;28;23305;-64
2022/01/14 00:59:30;;;;;;;21.00;16.20;;;1.60;81.30;;;;;;6251079;28;20486;-64
2022/01/14 01:02:33;;;;;;;22.73;16.60;;;1.60;81.70;;;;;;6250571;28;20482;-64
2022/01/14 01:05:36;;;;;;;24.73;15.43;;;1.60;81.80;;;;;;6250391;28;20474;-64
2022/01/14 01:08:40;;;;;;;20.47;16.37;;;1.50;82.00;;;;;;6249449;28;20467;-64
2022/01/14 01:11:50;;;;;;;18.67;14.00;;;1.50;82.00;;;;;;6249139;28;20660;-64
2022/01/14 01:15:04;;;;;;;19.70;15.60;;;1.50;82.30;;;;;;6249549;28;20482;-65
2022/01/14 01:18:08;;;;;;;16.57;14.67;;;1.60;82.50;;;;;;6249459;28;20482;-64
2022/01/14 01:21:11;;;;;;;21.20;15.10;;;1.60;82.50;;;;;;6250122;28;20483;-64
2022/01/14 01:24:15;;;;;;;20.20;15.10;;;1.60;82.60;;;;;;6250216;28;20471;-65
2022/01/14 01:27:20;;;;;;;19.23;15.20;;;1.60;82.70;;;;;;6250402;28;20474;-64
2022/01/14 01:30:49;;;;;;;19.63;13.83;;;1.70;83.70;;;;;;6249297;28;20993;-65
2022/01/14 01:33:53;;;;;;;21.30;14.40;;;1.70;83.10;;;;;;6250759;28;20481;-64
2022/01/14 01:36:58;;;;;;;18.80;14.13;;;1.60;82.80;;;;;;6249643;28;20471;-64
2022/01/14 01:40:01;;;;;;;19.50;13.83;;;1.60;83.30;;;;;;6250222;28;20491;-64
2022/01/14 01:43:07;;;;;;;18.73;13.30;;;1.60;83.30;;;;;;6249486;28;20471;-64
2022/01/14 01:46:11;;;;;;;14.90;12.40;;;1.60;83.50;;;;;;6250282;28;20481;-64
2022/01/14 01:49:16;;;;;;;18.70;13.50;;;1.50;83.70;;;;;;6249664;28;20485;-64
2022/01/14 01:52:19;;;;;;;22.00;14.57;;;1.50;83.80;;;;;;6251285;28;20966;-64
2022/01/14 01:55:23;;;;;;;19.63;14.40;;;1.40;84.10;;;;;;6255069;28;20958;-64
2022/01/14 01:58:26;;;;;;;16.23;13.10;;;1.50;84.50;;;;;;6254986;28;20471;-64
2022/01/14 02:01:31;;;;;;;16.97;13.00;;;1.40;84.40;;;;;;6254435;28;20970;-64
2022/01/14 02:04:35;;;;;;;18.87;12.70;;;1.40;84.70;;;;;;6254882;28;20525;-64
2022/01/14 02:07:40;;;;;;;16.90;13.57;;;1.40;85.60;;;;;;6254958;28;20973;-64
2022/01/14 02:10:43;;;;;;;18.67;13.10;;;1.40;84.90;;;;;;6254151;28;20467;-64
2022/01/14 02:13:48;;;;;;;19.03;14.00;;;1.50;85.00;;;;;;6243661;28;20476;-64
2022/01/14 02:17:26;;;;;;;16.67;13.37;;;1.40;85.10;;;;;;6239855;28;20958;-65
2022/01/14 02:23:51;;;;;;;16.07;12.50;;;1.40;85.40;;;;;;6235637;28;20472;-63
2022/01/14 02:26:55;;;;;;;16.47;12.53;;;1.40;85.60;;;;;;6239123;28;20471;-63
2022/01/14 02:29:58;;;;;;;15.47;12.60;;;1.40;85.90;;;;;;6234497;28;21006;-63
2022/01/14 02:33:02;;;;;;;20.10;12.23;;;1.40;85.80;;;;;;6229344;28;20529;-63
2022/01/14 02:36:07;;;;;;;14.40;10.83;;;1.30;85.80;;;;;;6229641;28;20480;-63
2022/01/14 02:39:11;;;;;;;13.77;11.03;;;1.30;85.90;;;;;;6229747;28;20487;-64
2022/01/14 02:42:15;;;;;;;14.90;11.93;;;1.30;86.30;;;;;;6228967;28;20549;-65
2022/01/14 02:45:19;;;;;;;14.70;10.93;;;1.30;86.30;;;;;;6229172;28;20998;-65
2022/01/14 02:48:25;;;;;;;17.17;11.70;;;1.30;86.50;;;;;;6229021;28;20471;-65
2022/01/14 02:51:30;;;;;;;13.43;10.73;;;1.30;86.50;;;;;;6229044;28;20479;-65
2022/01/14 02:54:40;;;;;;;16.20;11.23;;;1.30;86.80;;;;;;6229266;28;20472;-65
2022/01/14 02:57:45;;;;;;;14.23;10.70;;;1.30;86.70;;;;;;6228636;28;20787;-65
2022/01/14 03:00:49;;;;;;;15.93;11.37;;;1.30;87.30;;;;;;6228926;28;20483;-65
2022/01/14 03:03:55;;;;;;;24.97;14.07;;;1.20;87.30;;;;;;6228531;28;20893;-65
2022/01/14 03:07:00;;;;;;;14.40;12.87;;;1.20;87.30;;;;;;6228532;28;20530;-65
2022/01/14 03:10:04;;;;;;;19.00;15.20;;;1.20;88.50;;;;;;6228474;28;20483;-65
2022/01/14 03:13:08;;;;;;;19.37;14.27;;;1.10;88.50;;;;;;6228499;28;20472;-65
2022/01/14 03:16:11;;;;;;;18.30;14.63;;;1.10;89.00;;;;;;6228388;28;20475;-63
2022/01/14 03:19:19;;;;;;;14.07;12.60;;;1.10;89.40;;;;;;6228238;28;20476;-63
2022/01/14 03:22:28;;;;;;;17.80;12.97;;;1.10;89.70;;;;;;6228146;28;20484;-63
2022/01/14 03:25:48;;;;;;;19.20;12.83;;;1.20;90.00;;;;;;6228103;28;20476;-63
2022/01/14 03:28:51;;;;;;;17.83;12.10;;;1.10;89.90;;;;;;6228267;28;20845;-63
2022/01/14 03:31:54;;;;;;;14.50;11.37;;;1.10;90.10;;;;;;6227996;28;20807;-63
2022/01/14 03:34:57;;;;;;;21.83;12.60;;;1.10;90.10;;;;;;6228292;28;20456;-63
2022/01/14 03:38:01;;;;;;;20.87;11.10;;;1.20;90.30;;;;;;6228000;28;20447;-63
2022/01/14 03:41:06;;;;;;;19.30;10.93;;;1.10;90.10;;;;;;6228001;28;20460;-63
2022/01/14 03:44:09;;;;;;;17.00;12.00;;;1.10;90.30;;;;;;6227388;28;20483;-63
2022/01/14 03:47:12;;;;;;;13.60;10.07;;;1.00;90.40;;;;;;6227668;28;20916;-63
2022/01/14 03:50:15;;;;;;;11.33;9.80;;;1.00;90.70;;;;;;6227703;28;20492;-63
2022/01/14 03:53:20;;;;;;;14.00;9.60;;;1.00;90.90;;;;;;6222828;28;20926;-63
2022/01/14 03:56:25;;;;;;;12.77;9.53;;;1.00;91.00;;;;;;6227544;28;20479;-65
2022/01/14 03:59:28;;;;;;;14.43;10.17;;;1.10;91.10;;;;;;6227505;28;20471;-63
2022/01/14 04:02:31;;;;;;;14.20;10.70;;;1.10;91.10;;;;;;6226957;28;20481;-63
2022/01/14 04:05:35;;;;;;;11.50;10.30;;;1.00;91.20;;;;;;6228040;28;20554;-63
2022/01/14 04:08:41;;;;;;;11.43;9.20;;;1.10;91.30;;;;;;6227404;28;20472;-63
2022/01/14 04:11:45;;;;;;;11.40;9.47;;;1.00;91.20;;;;;;6227349;28;20984;-63
2022/01/14 04:18:11;;;;;;;11.90;8.03;;;1.00;91.60;;;;;;6233488;28;20483;-63
2022/01/14 04:21:15;;;;;;;11.10;9.20;;;1.00;91.90;;;;;;6226854;28;21030;-63
2022/01/14 04:24:19;;;;;;;9.40;7.87;;;1.00;91.90;;;;;;6227110;28;20479;-64
2022/01/14 04:27:22;;;;;;;12.07;8.30;;;1.00;92.10;;;;;;6227307;28;20472;-64
2022/01/14 04:30:25;;;;;;;12.30;7.70;;;0.90;92.30;;;;;;6226654;28;20828;-64
2022/01/14 04:33:30;;;;;;;9.93;7.60;;;0.90;92.50;;;;;;6226768;28;20472;-64
2022/01/14 04:36:33;;;;;;;10.90;9.20;;;0.90;92.60;;;;;;6226522;28;20477;-63
2022/01/14 04:39:38;;;;;;;13.90;9.63;;;0.90;92.60;;;;;;6226473;28;20476;-63
2022/01/14 04:42:43;;;;;;;11.20;8.70;;;0.90;92.60;;;;;;6226381;28;20952;-63
2022/01/14 04:46:02;;;;;;;12.50;8.83;;;0.90;92.60;;;;;;6226374;28;20483;-63
2022/01/14 04:49:05;;;;;;;10.77;9.13;;;1.00;92.50;;;;;;6226511;28;20480;-63
2022/01/14 04:52:08;;;;;;;12.50;8.97;;;1.00;92.30;;;;;;6226400;28;20484;-63
2022/01/14 04:55:16;;;;;;;12.73;8.60;;;0.90;92.50;;;;;;6226323;28;20472;-63
2022/01/14 04:58:19;;;;;;;11.90;8.40;;;0.90;92.60;;;;;;6226444;28;20475;-63
2022/01/14 05:01:23;;;;;;;14.67;8.27;;;0.90;92.60;;;;;;6225490;28;20967;-63
2022/01/14 05:04:26;;;;;;;10.83;7.30;;;0.90;92.70;;;;;;6226540;28;20599;-63
2022/01/14 05:07:29;;;;;;;7.53;6.43;;;0.80;92.80;;;;;;6226247;28;20479;-63
2022/01/14 05:10:49;;;;;;;7.93;7.00;;;0.80;93.00;;;;;;6226456;28;20483;-62
2022/01/14 05:13:52;;;;;;;11.53;8.80;;;0.90;93.20;;;;;;6225967;28;20480;-62
2022/01/14 05:16:55;;;;;;;9.57;8.47;;;0.90;93.20;;;;;;6225796;28;20978;-62
2022/01/14 05:19:58;;;;;;;11.30;9.57;;;0.90;93.00;;;;;;6224864;28;20952;-63
2022/01/14 05:23:02;;;;;;;11.80;9.40;;;0.90;93.00;;;;;;6225658;28;20857;-62
2022/01/14 05:26:06;;;;;;;14.60;8.97;;;0.90;93.00;;;;;;6226015;28;20444;-64
2022/01/14 05:29:09;;;;;;;10.53;8.07;;;0.90;93.00;;;;;;6226210;28;20463;-63
2022/01/14 05:32:14;;;;;;;10.50;9.07;;;0.90;93.10;;;;;;6225441;28;20506;-63
2022/01/14 05:35:20;;;;;;;15.73;8.33;;;0.80;93.30;;;;;;6226050;28;20448;-63
2022/01/14 05:38:23;;;;;;;13.43;8.27;;;0.80;93.40;;;;;;6226546;28;20460;-64
2022/01/14 05:41:27;;;;;;;11.90;8.00;;;0.80;93.40;;;;;;6225770;28;20820;-64
2022/01/14 05:44:31;;;;;;;14.40;9.00;;;0.90;93.40;;;;;;6225043;28;20849;-64
2022/01/14 05:47:35;;;;;;;8.67;6.90;;;0.80;93.40;;;;;;6225855;28;20472;-64
2022/01/14 05:50:38;;;;;;;12.47;6.90;;;0.90;93.50;;;;;;6225485;28;20479;-64
2022/01/14 05:53:42;;;;;;;8.37;7.47;;;0.80;93.50;;;;;;6225713;28;20808;-64
2022/01/14 05:56:46;;;;;;;11.20;7.27;;;0.80;93.80;;;;;;6226015;28;20483;-64
2022/01/14 05:59:50;;;;;;;14.00;7.30;;;0.90;93.90;;;;;;6225339;28;20486;-64
2022/01/14 06:02:53;;;;;;;9.50;7.67;;;0.90;93.80;;;;;;6225165;28;20476;-64
2022/01/14 06:05:56;;;;;;;11.70;7.37;;;0.90;93.80;;;;;;6225023;28;20472;-64
2022/01/14 06:08:59;;;;;;;9.30;8.23;;;0.90;93.80;;;;;;6225413;28;20533;-64
2022/01/14 06:12:05;;;;;;;9.83;6.97;;;0.90;93.90;;;;;;6224731;28;20476;-64
2022/01/14 06:15:09;;;;;;;7.57;6.83;;;0.90;94.00;;;;;;6224918;28;20968;-65
2022/01/14 06:18:12;;;;;;;11.70;7.30;;;0.90;94.20;;;;;;6225430;28;20483;-64
2022/01/14 06:21:15;;;;;;;10.40;7.43;;;0.90;94.30;;;;;;6225487;28;20483;-64
2022/01/14 06:24:19;;;;;;;10.13;8.30;;;0.90;94.40;;;;;;6224894;28;20959;-64
2022/01/14 06:27:23;;;;;;;10.57;7.80;;;0.90;94.60;;;;;;6225263;28;20781;-64
2022/01/14 06:30:27;;;;;;;12.20;9.03;;;0.90;94.50;;;;;;6224799;28;20534;-64
2022/01/14 06:33:30;;;;;;;11.77;8.70;;;0.90;94.50;;;;;;6224700;28;20476;-64
2022/01/14 06:36:33;;;;;;;16.57;7.43;;;0.90;94.70;;;;;;6224900;28;20475;-64
2022/01/14 06:39:36;;;;;;;13.20;8.00;;;0.90;94.70;;;;;;6228004;28;20471;-64
2022/01/14 06:42:41;;;;;;;13.23;9.00;;;1.00;94.70;;;;;;6229114;28;20559;-64
2022/01/14 06:45:44;;;;;;;11.87;6.70;;;0.90;94.60;;;;;;6228778;28;20993;-64
2022/01/14 06:48:48;;;;;;;10.67;7.33;;;0.80;95.00;;;;;;6229531;28;20471;-64
2022/01/14 06:51:51;;;;;;;9.10;7.33;;;0.80;95.10;;;;;;6228885;28;20472;-64
2022/01/14 06:54:55;;;;;;;9.77;7.47;;;0.90;95.40;;;;;;6228906;28;20464;-64
2022/01/14 06:58:00;;;;;;;10.13;8.53;;;0.90;95.50;;;;;;6228895;28;20483;-64
2022/01/14 07:01:03;;;;;;;12.60;8.47;;;1.00;95.70;;;;;;6228722;28;20480;-64
2022/01/14 07:04:06;;;;;;;10.10;7.53;;;1.10;95.70;;;;;;6229130;28;20563;-64
2022/01/14 07:07:09;;;;;;;10.17;8.00;;;1.00;95.70;;;;;;6219509;28;20472;-64
2022/01/14 07:10:13;;;;;;;10.57;9.00;;;1.10;95.90;;;;;;6228977;28;20767;-64
2022/01/14 07:13:17;;;;;;;11.80;7.97;;;1.10;96.00;;;;;;6228171;28;20509;-64
2022/01/14 07:16:20;;;;;;;9.90;8.33;;;1.20;96.10;;;;;;6228497;28;20964;-64
2022/01/14 07:19:26;;;;;;;10.70;8.40;;;1.20;96.10;;;;;;6228089;28;20476;-64
2022/01/14 07:22:29;;;;;;;11.33;8.33;;;1.20;96.10;;;;;;6227876;28;20468;-64
2022/01/14 07:25:32;;;;;;;13.27;8.90;;;1.30;96.10;;;;;;6228344;28;20492;-64
2022/01/14 07:28:37;;;;;;;22.33;12.57;;;1.30;96.10;;;;;;6228308;28;20471;-64
2022/01/14 07:31:40;;;;;;;22.83;12.17;;;1.40;96.00;;;;;;6227725;28;21214;-64
2022/01/14 07:34:45;;;;;;;12.90;8.97;;;1.30;96.10;;;;;;6226910;28;20975;-64
2022/01/14 07:37:48;;;;;;;9.67;8.00;;;1.40;96.30;;;;;;6227412;28;20476;-64
2022/01/14 07:40:51;;;;;;;10.27;7.87;;;1.40;96.10;;;;;;6227880;28;20483;-63
2022/01/14 07:43:57;;;;;;;11.83;7.57;;;1.40;96.30;;;;;;6229867;28;20990;-63
2022/01/14 07:47:01;;;;;;;12.40;7.87;;;1.40;96.40;;;;;;6220449;28;20460;-63
2022/01/14 07:50:05;;;;;;;10.83;9.10;;;1.50;96.50;;;;;;6228017;28;20468;-64
2022/01/14 07:53:08;;;;;;;10.10;8.00;;;1.60;96.60;;;;;;6227870;28;20444;-64
2022/01/14 07:56:13;;;;;;;10.80;9.70;;;1.60;96.60;;;;;;6228195;28;20459;-64
2022/01/14 07:59:20;;;;;;;11.53;9.10;;;1.70;96.40;;;;;;6227246;28;20818;-64
2022/01/14 08:02:25;;;;;;;14.10;9.97;;;1.80;96.40;;;;;;6227891;28;20460;-64
2022/01/14 08:05:28;;;;;;;13.20;8.80;;;1.80;96.50;;;;;;6226859;28;20765;-64
2022/01/14 08:08:31;;;;;;;10.70;9.57;;;1.80;96.50;;;;;;6222642;28;20468;-64
2022/01/14 08:11:35;;;;;;;16.70;10.43;;;1.90;96.40;;;;;;6226694;28;20486;-65
2022/01/14 08:14:39;;;;;;;13.50;10.20;;;2.00;96.40;;;;;;6227194;28;20990;-64
2022/01/14 08:17:43;;;;;;;13.20;9.67;;;2.00;96.10;;;;;;6227007;28;20468;-64
2022/01/14 08:20:46;;;;;;;10.20;9.10;;;2.20;96.20;;;;;;6227492;28;20484;-64
2022/01/14 08:23:50;;;;;;;18.70;9.20;;;2.20;96.20;;;;;;6230142;28;20476;-64
2022/01/14 08:26:53;;;;;;;15.57;8.20;;;2.30;96.20;;;;;;6240244;28;20467;-64
2022/01/14 08:29:57;;;;;;;11.77;8.40;;;2.40;96.10;;;;;;6236697;28;20484;-64
2022/01/14 08:33:00;;;;;;;14.73;8.83;;;2.50;96.00;;;;;;6231181;28;20470;-64
2022/01/14 08:36:04;;;;;;;13.30;8.37;;;2.60;96.10;;;;;;6239965;28;20981;-66
2022/01/14 08:39:08;;;;;;;10.10;7.90;;;2.70;96.20;;;;;;6234515;28;20482;-65
2022/01/14 08:42:13;;;;;;;17.53;9.17;;;2.80;96.10;;;;;;6238059;28;20472;-64
2022/01/14 08:45:18;;;;;;;17.63;11.67;;;2.90;96.20;;;;;;6239197;28;20529;-64
2022/01/14 08:48:21;;;;;;;13.50;9.00;;;2.90;96.20;;;;;;6237518;28;20467;-64
2022/01/14 08:51:24;;;;;;;13.77;11.80;;;3.00;96.20;;;;;;6239600;28;20471;-65
2022/01/14 08:54:28;;;;;;;13.50;9.10;;;3.20;96.10;;;;;;6245181;28;20474;-65
2022/01/14 08:57:31;;;;;;;11.70;10.37;;;3.30;96.00;;;;;;6242815;28;20541;-65
2022/01/14 09:00:37;;;;;;;14.83;10.83;;;3.40;95.80;;;;;;6250000;28;20498;-65
2022/01/14 09:03:40;;;;;;;14.00;9.80;;;3.60;96.00;;;;;;6250422;28;20471;-65
2022/01/14 09:06:43;;;;;;;12.33;9.07;;;3.70;95.50;;;;;;6250155;28;20974;-65
2022/01/14 09:09:46;;;;;;;12.60;10.03;;;3.80;95.50;;;;;;6250442;28;20490;-64
2022/01/14 09:12:49;;;;;;;12.30;8.90;;;3.90;95.30;;;;;;6242780;28;20870;-65
2022/01/14 09:15:54;;;;;;;14.13;10.20;;;4.00;95.20;;;;;;6225319;28;20464;-64
2022/01/14 09:18:57;;;;;;;13.80;10.17;;;4.10;95.00;;;;;;6231506;28;20852;-64
2022/01/14 09:22:00;;;;;;;13.80;10.37;;;4.20;95.00;;;;;;6232049;28;20826;-64
2022/01/14 09:25:20;;;;;;;12.70;9.80;;;4.30;94.70;;;;;;6250077;28;20478;-64
2022/01/14 09:28:23;;;;;;;12.87;10.17;;;4.50;94.70;;;;;;6230351;28;20569;-63
2022/01/14 09:31:28;;;;;;;27.80;9.73;;;4.60;94.70;;;;;;6244162;28;20482;-63
2022/01/14 09:34:31;;;;;;;21.80;10.63;;;4.70;94.50;;;;;;6250136;28;20481;-63
2022/01/14 09:37:34;;;;;;;20.63;12.37;;;4.90;94.10;;;;;;6250578;28;20795;-63
2022/01/14 09:40:42;;;;;;;14.90;9.80;;;5.00;94.00;;;;;;6250072;28;20478;-63
2022/01/14 09:43:45;;;;;;;15.27;10.40;;;5.20;94.00;;;;;;6249545;28;20475;-63
2022/01/14 09:46:51;;;;;;;15.67;12.10;;;5.30;93.80;;;;;;6249941;28;20481;-63
2022/01/14 09:49:54;;;;;;;19.90;13.83;;;5.40;93.30;;;;;;6249900;28;20494;-63
2022/01/14 09:52:58;;;;;;;25.37;12.90;;;5.50;92.10;;;;;;6239509;28;20948;-63
2022/01/14 09:56:02;;;;;;;18.87;13.20;;;5.50;91.70;;;;;;6225579;28;20927;-63
2022/01/14 09:59:06;;;;;;;16.00;11.20;;;5.70;91.70;;;;;;6225500;28;20439;-63
2022/01/14 10:02:29;;;;;;;18.13;10.80;;;5.80;91.60;;;;;;6225212;28;20447;-63
2022/01/14 10:05:35;;;;;;;16.87;9.17;;;5.90;91.40;;;;;;6225091;28;21007;-63
2022/01/14 10:08:38;;;;;;;13.97;10.97;;;6.10;91.50;;;;;;6224982;28;20475;-64
2022/01/14 10:11:44;;;;;;;10.83;9.73;;;6.20;91.40;;;;;;6225009;28;20482;-64
2022/01/14 10:14:55;;;;;;;13.90;10.13;;;6.30;91.10;;;;;;6228829;28;20479;-63
2022/01/14 10:18:02;;;;;;;12.20;10.90;;;6.40;91.10;;;;;;6220193;28;20476;-63
2022/01/14 10:21:06;;;;;;;23.50;11.73;;;6.60;90.90;;;;;;6248241;28;20479;-63
2022/01/14 10:24:11;;;;;;;16.27;12.30;;;6.80;90.60;;;;;;6254083;28;20478;-64
2022/01/14 10:27:15;;;;;;;17.67;13.00;;;7.00;90.20;;;;;;6247520;28;20468;-64
2022/01/14 10:30:20;;;;;;;15.53;12.13;;;7.10;89.70;;;;;;6248395;28;20478;-64
2022/01/14 10:33:29;;;;;;;16.23;12.70;;;7.20;89.30;;;;;;6254278;28;20474;-64
2022/01/14 10:36:33;;;;;;;15.83;13.87;;;7.20;89.20;;;;;;6253692;28;20471;-64
2022/01/14 10:39:44;;;;;;;15.53;13.90;;;7.30;88.60;;;;;;6253703;28;20486;-64
2022/01/14 10:42:50;;;;;;;16.47;13.87;;;7.50;88.60;;;;;;6253778;28;20494;-65
2022/01/14 10:46:08;;;;;;;20.23;14.07;;;7.50;87.60;;;;;;6228867;28;20484;-65
2022/01/14 10:49:13;;;;;;;19.83;14.70;;;7.60;88.00;;;;;;6252771;28;20815;-65
2022/01/14 10:52:36;;;;;;;22.80;13.90;;;7.80;87.60;;;;;;6253291;28;20478;-65
2022/01/14 10:55:42;;;;;;;20.43;13.90;;;8.00;86.80;;;;;;6231058;28;20845;-64
2022/01/14 10:58:47;;;;;;;24.40;15.53;;;8.00;86.30;;;;;;6228734;28;20475;-65
2022/01/14 11:01:50;;;;;;;20.77;14.80;;;8.10;85.80;;;;;;6245001;28;20553;-64
2022/01/14 11:05:07;;;;;;;27.73;13.53;;;8.20;85.50;;;;;;6253978;28;20473;-64
2022/01/14 11:08:10;;;;;;;16.67;12.87;;;8.50;85.50;;;;;;6253788;28;20462;-64
2022/01/14 11:11:15;;;;;;;13.37;10.50;;;8.80;84.20;;;;;;6248946;28;20650;-64
2022/01/14 11:14:19;;;;;;;12.23;9.10;;;9.00;83.50;;;;;;6240775;28;20493;-62
2022/01/14 11:17:22;;;;;;;13.37;9.27;;;9.30;82.00;;;;;;6251788;28;20470;-64
2022/01/14 11:24:09;;;;;;;13.67;8.50;;;12.80;78.10;;;;;;6251284;28;20482;-64
2022/01/14 11:27:14;;;;;;;10.10;9.10;;;18.70;60.10;;;;;;6239187;28;20471;-65
2022/01/14 11:30:17;;;;;;;11.30;9.10;;;23.40;43.90;;;;;;6236748;28;20561;-65
2022/01/14 11:33:20;;;;;;;16.70;9.77;;;26.50;34.30;;;;;;6251633;28;20829;-65
2022/01/14 11:36:26;;;;;;;13.33;10.03;;;26.50;30.50;;;;;;6250755;28;20224;-65
2022/01/14 11:39:31;;;;;;;12.83;10.23;;;26.10;30.00;;;;;;6250893;28;20684;-65
2022/01/14 11:42:43;;;;;;;11.87;9.80;;;26.50;29.60;;;;;;6249403;28;20240;-65
2022/01/14 11:45:53;;;;;;;10.30;9.20;;;28.50;28.70;;;;;;6250132;28;20243;-65
2022/01/14 11:48:56;;;;;;;12.00;10.03;;;31.10;26.30;;;;;;6250678;28;20243;-64
2022/01/14 11:52:02;;;;;;;10.30;8.77;;;33.10;24.20;;;;;;6250609;28;20234;-65
2022/01/14 11:55:20;;;;;;;9.65;8.85;;;34.60;22.20;;;;;;6250476;28;20235;-64
2022/01/14 11:58:23;;;;;;;9.25;8.07;;;35.60;21.60;;;;;;6250532;28;20229;-66
2022/01/14 12:01:36;;;;;;;9.07;8.05;;;36.90;20.00;;;;;;6250381;28;20249;-65
2022/01/14 12:05:01;;;;;;;9.95;8.15;;;37.80;19.00;;;;;;6250254;28;20662;-65
2022/01/14 12:08:23;;;;;;;14.27;9.10;;;38.50;18.70;;;;;;6229818;28;20222;-64
2022/01/14 12:11:27;;;;;;;10.20;8.45;;;39.10;18.00;;;;;;6225655;28;20733;-64
2022/01/14 12:14:43;;;;;;;10.35;9.27;;;39.60;17.90;;;;;;6225543;28;20243;-66
2022/01/14 12:17:46;;;;;;;10.57;9.27;;;39.80;17.10;;;;;;6225841;28;20233;-66
2022/01/14 12:20:49;;;;;;;10.65;8.90;;;38.90;17.00;;;;;;6225731;28;20237;-64
2022/01/14 12:23:59;;;;;;;10.70;9.60;;;39.30;16.90;;;;;;6225240;28;20237;-64
2022/01/14 12:27:28;;;;;;;12.18;9.32;;;39.30;16.60;;;;;;6236080;28;20565;-65
2022/01/14 12:30:31;;;;;;;11.43;9.55;;;39.80;16.40;;;;;;6249928;28;20239;-65
2022/01/14 12:33:45;;;;;;;11.52;8.38;;;40.00;16.30;;;;;;6250145;28;20251;-65
2022/01/14 12:36:48;;;;;;;11.50;8.95;;;40.10;16.10;;;;;;6248259;28;20256;-65
2022/01/14 12:39:54;;;;;;;11.63;9.82;;;40.40;16.00;;;;;;6249243;28;20691;-65
2022/01/14 12:42:59;;;;;;;9.93;8.85;;;40.40;16.00;;;;;;6249885;28;20270;-65
2022/01/14 12:46:13;;;;;;;10.52;9.52;;;40.50;15.70;;;;;;6248978;28;20261;-66
2022/01/14 12:49:24;;;;;;;11.88;9.35;;;40.30;15.90;;;;;;6223314;28;20314;-66
2022/01/14 12:52:37;;;;;;;11.63;8.60;;;40.00;16.00;;;;;;6223182;28;20242;-65
2022/01/14 12:55:41;;;;;;;9.98;8.75;;;40.20;15.80;;;;;;6245843;28;20249;-65
2022/01/14 12:58:56;;;;;;;10.40;9.07;;;39.50;16.40;;;;;;6247730;28;20244;-65
2022/01/14 13:01:59;;;;;;;10.15;9.15;;;39.50;15.90;;;;;;6248563;28;20271;-65
2022/01/14 13:05:06;;;;;;;10.45;9.48;;;39.50;16.00;;;;;;6248682;28;20221;-65
2022/01/14 13:08:09;;;;;;;10.85;9.13;;;39.50;15.90;;;;;;6227684;28;20869;-65
2022/01/14 13:11:13;;;;;;;9.40;8.50;;;39.30;16.00;;;;;;6224090;28;20260;-64
2022/01/14 13:14:25;;;;;;;9.07;8.18;;;39.00;15.90;;;;;;6243304;28;20645;-65
2022/01/14 13:17:29;;;;;;;8.63;7.93;;;38.60;16.40;;;;;;6248962;28;20239;-65
2022/01/14 13:20:34;;;;;;;10.68;9.38;;;38.20;16.40;;;;;;6248729;28;20544;-65
2022/01/14 13:23:37;;;;;;;11.23;9.43;;;37.70;17.10;;;;;;6247312;28;20231;-65
2022/01/14 13:26:42;;;;;;;10.00;8.93;;;37.50;16.90;;;;;;6238974;28;20639;-63
2022/01/14 13:29:47;;;;;;;10.18;9.18;;;37.80;17.40;;;;;;6222317;28;20243;-65
2022/01/14 13:32:53;;;;;;;10.60;9.43;;;37.70;16.70;;;;;;6246473;28;20747;-66
2022/01/14 13:35:57;;;;;;;9.77;8.70;;;37.70;16.70;;;;;;6247132;28;20246;-66
2022/01/14 13:39:09;;;;;;;12.50;9.70;;;37.50;16.80;;;;;;6248487;28;20230;-65
2022/01/14 13:42:28;;;;;;;11.98;10.73;;;37.30;17.10;;;;;;6248000;28;20904;-65
2022/01/14 13:45:32;;;;;;;14.13;11.07;;;37.10;16.90;;;;;;6246680;28;20232;-65
2022/01/14 13:48:43;;;;;;;12.43;11.23;;;36.30;17.50;;;;;;6253859;28;20232;-65
2022/01/14 13:51:47;;;;;;;13.35;10.55;;;36.00;17.60;;;;;;6256539;28;20233;-65
2022/01/14 13:54:55;;;;;;;12.40;10.88;;;35.80;17.80;;;;;;6256378;28;20233;-64
2022/01/14 13:58:14;;;;;;;12.73;10.27;;;35.50;17.90;;;;;;6256888;28;20224;-65
2022/01/14 14:01:17;;;;;;;11.30;10.05;;;34.50;18.30;;;;;;6256514;28;20237;-65
2022/01/14 14:04:27;;;;;;;11.43;10.32;;;34.40;18.80;;;;;;6256276;28;20247;-64
2022/01/14 14:07:47;;;;;;;12.55;11.27;;;34.50;18.70;;;;;;6239794;28;20239;-64
2022/01/14 14:18:00;;;;;;;17.55;10.27;;;33.80;19.00;;;;;;6214419;28;20232;-65
2022/01/14 14:21:15;;;;;;;15.63;10.40;;;33.00;19.60;;;;;;6231635;28;20278;-65
2022/01/14 14:24:18;;;;;;;19.92;10.90;;;32.30;20.00;;;;;;6231537;28;20235;-65
2022/01/14 14:27:23;;;;;;;15.27;10.60;;;31.20;21.00;;;;;;6245056;28;20227;-64
2022/01/14 14:30:34;;;;;;;13.97;10.57;;;29.80;22.00;;;;;;6255575;28;20260;-64
2022/01/14 14:33:37;;;;;;;15.93;10.90;;;28.20;23.20;;;;;;6246577;28;20230;-65
2022/01/14 14:36:41;;;;;;;12.90;9.97;;;26.50;24.80;;;;;;6256287;28;20233;-65
2022/01/14 14:39:44;;;;;;;15.57;10.07;;;24.90;26.50;;;;;;6254824;28;20231;-64
2022/01/14 14:42:48;;;;;;;12.23;9.70;;;23.50;27.70;;;;;;6245371;28;20220;-64
2022/01/14 14:45:52;;;;;;;12.33;10.37;;;22.20;28.80;;;;;;6247851;28;20692;-64
2022/01/14 14:48:55;;;;;;;14.63;9.93;;;21.00;30.30;;;;;;6239263;28;20339;-64
2022/01/14 14:51:58;;;;;;;13.10;10.03;;;19.90;31.70;;;;;;6256101;28;20228;-64
2022/01/14 14:55:02;;;;;;;12.50;8.83;;;19.00;33.20;;;;;;6255693;28;20714;-64
2022/01/14 14:58:05;;;;;;;11.30;8.70;;;18.20;34.40;;;;;;6243385;28;20482;-64
2022/01/14 15:01:14;;;;;;;15.30;9.90;;;17.40;36.10;;;;;;6226965;28;20563;-64
2022/01/14 15:04:17;;;;;;;14.23;9.77;;;16.80;37.20;;;;;;6227660;28;20495;-64
2022/01/14 15:07:20;;;;;;;13.37;10.00;;;16.30;38.70;;;;;;6241962;28;20486;-64
2022/01/14 15:10:25;;;;;;;13.07;9.00;;;15.80;39.50;;;;;;6251371;28;20971;-64
2022/01/14 15:13:30;;;;;;;11.00;8.13;;;15.40;40.50;;;;;;6252037;28;20481;-65
2022/01/14 15:17:09;;;;;;;12.63;9.27;;;15.00;41.00;;;;;;6251466;28;20534;-63
2022/01/14 15:20:12;;;;;;;11.97;7.60;;;14.80;41.90;;;;;;6251331;28;20490;-64
2022/01/14 15:23:16;;;;;;;11.10;7.63;;;14.40;43.00;;;;;;6251832;28;20439;-64
2022/01/14 15:26:21;;;;;;;11.77;8.60;;;14.10;43.40;;;;;;6251781;28;20458;-64
2022/01/14 15:29:24;;;;;;;20.83;9.33;;;13.90;44.20;;;;;;6251374;28;20463;-65
2022/01/14 15:32:31;;;;;;;12.93;9.40;;;13.70;45.00;;;;;;6251201;28;20477;-64
2022/01/14 15:35:35;;;;;;;15.23;9.60;;;13.40;46.00;;;;;;6241722;28;20935;-64
2022/01/14 15:38:38;;;;;;;13.63;8.47;;;13.10;46.70;;;;;;6251776;28;20471;-64
2022/01/14 15:41:41;;;;;;;12.20;8.80;;;12.90;47.10;;;;;;6251232;28;20482;-64
2022/01/14 15:44:44;;;;;;;14.70;9.63;;;12.70;48.00;;;;;;6250333;28;20469;-65
2022/01/14 15:47:49;;;;;;;12.10;8.90;;;12.60;48.30;;;;;;6250283;28;20837;-64
2022/01/14 15:50:52;;;;;;;18.67;9.77;;;12.30;49.60;;;;;;6226513;28;20828;-64
2022/01/14 15:53:57;;;;;;;11.27;9.90;;;12.30;49.90;;;;;;6226199;28;20773;-64
2022/01/14 15:57:01;;;;;;;15.70;9.87;;;12.10;50.40;;;;;;6225650;28;20480;-63
2022/01/14 16:00:06;;;;;;;16.03;9.23;;;12.00;51.50;;;;;;6225709;28;20480;-64
2022/01/14 16:03:10;;;;;;;14.10;8.83;;;11.80;51.80;;;;;;6226441;28;20472;-63
2022/01/14 16:06:14;;;;;;;13.13;9.20;;;11.60;52.40;;;;;;6231072;28;20494;-63
2022/01/14 16:09:17;;;;;;;12.30;8.60;;;11.40;53.50;;;;;;6250152;28;20784;-63
2022/01/14 16:12:20;;;;;;;16.77;10.23;;;11.40;54.30;;;;;;6249464;28;20482;-63
2022/01/14 16:15:23;;;;;;;14.70;9.43;;;11.40;54.70;;;;;;6250660;28;20474;-63
2022/01/14 16:18:28;;;;;;;22.30;10.43;;;11.20;55.00;;;;;;6249811;28;20950;-63
2022/01/14 16:21:32;;;;;;;17.50;9.90;;;11.00;55.40;;;;;;6249783;28;20787;-64
2022/01/14 16:24:36;;;;;;;14.27;9.97;;;10.90;56.20;;;;;;6249567;28;20490;-63